createdAt,value
2022-09-07T00:00:40.483Z,48.80
2022-09-07T00:03:03.901Z,48.03
2022-09-07T00:05:28.286Z,47.51
2022-09-07T00:07:53.036Z,48.27
2022-09-07T00:10:16.577Z,49.00
2022-09-07T00:12:40.329Z,48.42
2022-09-07T00:15:08.261Z,48.46
2022-09-07T00:17:31.627Z,48.46
2022-09-07T00:19:55.466Z,48.68
2022-09-07T00:22:18.818Z,48.51
2022-09-07T00:24:43.648Z,48.64
2022-09-07T00:27:07.110Z,48.54
2022-09-07T00:29:30.490Z,49.17
2022-09-07T00:31:54.185Z,48.99
2022-09-07T00:34:17.609Z,49.01
2022-09-07T00:36:41.045Z,48.50
2022-09-07T00:39:04.659Z,47.79
2022-09-07T00:41:29.417Z,47.74
2022-09-07T00:43:53.636Z,47.74
2022-09-07T00:46:18.217Z,48.15
2022-09-07T00:48:46.107Z,48.30
2022-09-07T00:51:10.748Z,48.09
2022-09-07T00:53:35.759Z,47.69
2022-09-07T00:55:59.222Z,47.91
2022-09-07T00:58:24.007Z,48.47
2022-09-07T01:00:47.544Z,48.01
2022-09-07T01:03:10.912Z,47.46
2022-09-07T01:05:36.338Z,47.24
2022-09-07T01:07:59.675Z,47.18
2022-09-07T01:10:24.239Z,48.12
2022-09-07T01:12:47.650Z,48.47
2022-09-07T01:15:12.610Z,49.27
2022-09-07T01:17:41.947Z,49.18
2022-09-07T01:20:27.426Z,48.80
2022-09-07T01:23:13.534Z,49.66
2022-09-07T01:25:42.593Z,49.42
2022-09-07T01:28:11.181Z,49.11
2022-09-07T01:30:37.442Z,49.16
2022-09-07T01:33:31.426Z,49.04
2022-09-07T01:35:57.889Z,48.83
2022-09-07T01:38:24.507Z,48.51
2022-09-07T01:40:50.621Z,48.33
2022-09-07T01:43:17.981Z,48.40
2022-09-07T01:45:41.381Z,48.69
2022-09-07T01:48:05.965Z,49.24
2022-09-07T01:50:30.422Z,49.04
2022-09-07T01:52:55.254Z,48.96
2022-09-07T01:55:20.471Z,49.65
2022-09-07T01:57:45.032Z,49.51
2022-09-07T02:00:10.663Z,49.61
2022-09-07T02:02:39.822Z,50.30
2022-09-07T02:05:05.391Z,50.36
2022-09-07T02:07:30.293Z,50.44
2022-09-07T02:09:55.080Z,50.11
2022-09-07T02:12:20.210Z,50.02
2022-09-07T02:14:48.306Z,50.37
2022-09-07T02:17:17.645Z,51.36
2022-09-07T02:19:50.020Z,50.76
2022-09-07T02:22:14.873Z,50.17
2022-09-07T02:24:39.407Z,50.55
2022-09-07T02:27:02.843Z,51.01
2022-09-07T02:29:30.782Z,50.82
2022-09-07T02:31:54.361Z,49.99
2022-09-07T02:34:19.457Z,49.20
2022-09-07T02:36:44.921Z,50.00
2022-09-07T02:39:08.530Z,49.41
2022-09-07T02:41:33.965Z,48.73
2022-09-07T02:43:57.385Z,49.78
2022-09-07T02:46:23.214Z,50.11
2022-09-07T02:48:51.426Z,50.66
2022-09-07T02:51:19.678Z,51.45
2022-09-07T02:53:54.776Z,51.25
2022-09-07T02:56:24.648Z,50.87
2022-09-07T02:58:54.967Z,51.41
2022-09-07T03:01:21.808Z,51.53
2022-09-07T03:03:47.961Z,51.49
2022-09-07T03:06:14.361Z,50.88
2022-09-07T03:08:40.535Z,51.27
2022-09-07T03:11:05.470Z,51.20
2022-09-07T03:13:30.184Z,51.54
2022-09-07T03:15:56.019Z,50.98
2022-09-07T03:18:19.875Z,51.72
2022-09-07T03:20:43.258Z,50.86
2022-09-07T03:23:06.682Z,50.51
2022-09-07T03:25:31.423Z,51.09
2022-09-07T03:27:54.831Z,51.43
2022-09-07T03:30:18.528Z,50.73
2022-09-07T03:32:41.871Z,50.67
2022-09-07T03:35:05.692Z,50.96
2022-09-07T03:37:29.020Z,51.16
2022-09-07T03:39:52.429Z,51.62
2022-09-07T03:42:17.163Z,51.46
2022-09-07T03:44:40.566Z,51.41
2022-09-07T03:47:04.002Z,51.52
2022-09-07T03:49:27.307Z,51.98
2022-09-07T03:51:50.719Z,51.76
2022-09-07T03:54:14.046Z,51.85
2022-09-07T03:56:37.367Z,51.22
2022-09-07T03:59:02.090Z,51.30
2022-09-07T04:01:26.253Z,51.35
2022-09-07T04:03:49.675Z,50.21
2022-09-07T04:06:13.043Z,50.69
2022-09-07T04:08:36.947Z,50.24
2022-09-07T04:11:00.395Z,49.58
2022-09-07T04:13:23.757Z,49.99
2022-09-07T04:15:52.124Z,49.31
2022-09-07T04:18:17.882Z,49.06
2022-09-07T04:20:41.238Z,50.00
2022-09-07T04:23:04.648Z,49.98
2022-09-07T04:25:27.993Z,50.72
2022-09-07T04:27:51.338Z,50.51
2022-09-07T04:30:15.309Z,50.68
2022-09-07T04:32:40.046Z,50.89
2022-09-07T04:35:03.352Z,51.18
2022-09-07T04:37:26.749Z,50.92
2022-09-07T04:39:50.193Z,51.47
2022-09-07T04:42:13.587Z,51.86
2022-09-07T04:44:37.134Z,51.57
2022-09-07T04:47:00.469Z,51.28
2022-09-07T04:49:25.198Z,51.04
2022-09-07T04:51:48.522Z,51.36
2022-09-07T04:54:11.855Z,51.25
2022-09-07T04:56:35.316Z,51.04
2022-09-07T04:58:58.746Z,51.26
2022-09-07T05:01:22.810Z,51.24
2022-09-07T05:03:46.238Z,50.54
2022-09-07T05:06:11.160Z,50.53
2022-09-07T05:08:37.597Z,50.74
2022-09-07T05:11:00.955Z,50.87
2022-09-07T05:13:24.296Z,50.40
2022-09-07T05:15:47.607Z,50.32
2022-09-07T05:18:10.972Z,50.22
2022-09-07T05:20:34.297Z,50.12
2022-09-07T05:22:59.750Z,49.94
2022-09-07T05:25:23.236Z,49.92
2022-09-07T05:27:46.701Z,49.69
2022-09-07T05:32:54.851Z,48.80
2022-09-07T05:35:19.031Z,48.29
2022-09-07T05:37:42.494Z,48.57
2022-09-07T05:40:08.465Z,48.72
2022-09-07T05:42:31.998Z,48.47
2022-09-07T05:44:55.320Z,48.67
2022-09-07T05:47:18.725Z,48.99
2022-09-07T05:49:42.191Z,49.06
2022-09-07T05:52:05.525Z,49.10
2022-09-07T05:54:28.894Z,48.96
2022-09-07T05:56:53.636Z,48.57
2022-09-07T05:59:16.918Z,48.59
2022-09-07T06:01:40.347Z,48.47
2022-09-07T06:04:04.086Z,48.08
2022-09-07T06:06:27.436Z,47.82
2022-09-07T06:08:52.507Z,47.59
2022-09-07T06:11:17.471Z,47.54
2022-09-07T06:13:42.232Z,47.48
2022-09-07T06:16:06.430Z,47.28
2022-09-07T06:18:31.578Z,47.24
2022-09-07T06:20:54.950Z,47.23
2022-09-07T06:23:18.348Z,46.87
2022-09-07T06:25:49.290Z,47.18
2022-09-07T06:28:12.739Z,46.98
2022-09-07T06:30:37.513Z,47.22
2022-09-07T06:33:00.837Z,46.90
2022-09-07T06:35:24.177Z,46.66
2022-09-07T06:37:47.491Z,46.66
2022-09-07T06:40:11.734Z,46.50
2022-09-07T06:42:35.187Z,46.50
2022-09-07T06:44:59.079Z,46.54
2022-09-07T06:47:23.786Z,46.61
2022-09-07T06:49:47.250Z,46.78
2022-09-07T06:52:10.662Z,46.75
2022-09-07T06:57:17.432Z,47.15
2022-09-07T06:59:40.735Z,47.21
2022-09-07T07:02:04.301Z,47.30
2022-09-07T07:04:29.126Z,47.51
2022-09-07T07:06:52.472Z,47.87
2022-09-07T07:42:29.494Z,47.61
2022-09-07T07:47:36.145Z,47.45
2022-09-07T07:52:50.527Z,47.40
2022-09-07T07:57:59.042Z,47.61
2022-09-07T08:00:37.359Z,47.74
2022-09-07T08:03:06.031Z,47.73
2022-09-07T08:05:29.315Z,47.83
2022-09-07T08:07:52.662Z,47.96
2022-09-07T08:10:17.466Z,47.60
2022-09-07T08:12:40.849Z,47.52
2022-09-07T08:15:04.462Z,47.41
2022-09-07T08:17:27.833Z,47.78
2022-09-07T08:19:51.693Z,47.84
2022-09-07T08:22:14.938Z,48.01
2022-09-07T08:24:38.077Z,48.14
2022-09-07T08:27:02.738Z,48.11
2022-09-07T08:29:27.121Z,48.27
2022-09-07T08:31:50.617Z,48.58
2022-09-07T08:34:13.905Z,48.76
2022-09-07T08:36:37.112Z,48.52
2022-09-07T08:39:00.614Z,48.61
2022-09-07T08:41:43.374Z,48.76
2022-09-07T08:44:12.682Z,48.72
2022-09-07T08:46:37.857Z,48.64
2022-09-07T08:49:01.465Z,48.49
2022-09-07T08:51:27.029Z,48.67
2022-09-07T08:53:50.631Z,48.63
2022-09-07T08:56:16.108Z,48.58
2022-09-07T08:58:49.217Z,48.52
2022-09-07T09:06:45.539Z,48.46
2022-09-07T09:09:14.306Z,48.42
2022-09-07T09:11:44.371Z,47.98
2022-09-07T09:14:11.194Z,47.62
2022-09-07T09:16:37.163Z,47.51
2022-09-07T09:19:07.440Z,47.55
2022-09-07T09:21:30.738Z,47.19
2022-09-07T09:23:54.766Z,47.07
2022-09-07T09:26:19.383Z,46.92
2022-09-07T09:28:42.702Z,46.66
2022-09-07T09:31:06.192Z,46.66
2022-09-07T09:33:30.877Z,46.54
2022-09-07T09:35:54.751Z,46.25
2022-09-07T09:38:32.349Z,46.13
2022-09-07T09:40:55.941Z,46.03
2022-09-07T09:43:19.841Z,46.05
2022-09-07T09:48:33.690Z,45.89
2022-09-07T09:53:41.560Z,46.21
2022-09-07T09:56:05.064Z,46.35
2022-09-07T10:01:23.754Z,46.14
2022-09-07T10:03:57.583Z,46.05
2022-09-07T10:06:22.955Z,46.02
2022-09-07T10:08:53.262Z,46.15
2022-09-07T10:11:16.434Z,46.39
2022-09-07T10:13:46.874Z,46.67
2022-09-07T10:16:10.372Z,46.54
2022-09-07T10:18:35.534Z,46.76
2022-09-07T10:21:25.845Z,46.83
2022-09-07T10:23:49.198Z,46.93
2022-09-07T10:26:23.517Z,47.00
2022-09-07T10:31:32.052Z,47.27
2022-09-07T10:36:45.405Z,47.42
2022-09-07T10:39:09.631Z,47.41
2022-09-07T10:41:36.729Z,47.56
2022-09-07T10:43:59.890Z,47.48
2022-09-07T10:49:18.750Z,47.25
2022-09-07T10:51:45.402Z,47.00
2022-09-07T10:57:00.610Z,47.05
2022-09-07T11:02:17.778Z,46.99
2022-09-07T11:04:50.010Z,46.99
2022-09-07T11:07:22.205Z,46.83
2022-09-07T11:09:52.564Z,46.83
2022-09-07T11:12:17.800Z,46.92
2022-09-07T11:14:44.162Z,47.03
2022-09-07T11:17:12.029Z,46.87
2022-09-07T11:19:37.660Z,46.84
2022-09-07T11:22:04.546Z,46.87
2022-09-07T11:24:30.777Z,46.75
2022-09-07T11:26:54.931Z,46.73
2022-09-07T11:29:34.711Z,46.70
2022-09-07T11:31:59.477Z,46.94
2022-09-07T11:34:24.643Z,46.83
2022-09-07T11:36:51.860Z,47.06
2022-09-07T11:39:17.924Z,47.11
2022-09-07T11:41:46.245Z,47.32
2022-09-07T11:44:13.990Z,46.95
2022-09-07T11:46:39.077Z,47.04
2022-09-07T11:49:04.648Z,46.75
2022-09-07T11:51:33.816Z,46.80
2022-09-07T11:53:58.223Z,46.64
2022-09-07T11:56:22.856Z,46.79
2022-09-07T11:59:18.839Z,46.91
2022-09-07T12:01:48.448Z,46.82
2022-09-07T12:04:36.433Z,46.77
2022-09-07T12:07:21.893Z,46.36
2022-09-07T12:10:03.751Z,46.70
2022-09-07T12:12:39.513Z,46.42
2022-09-07T12:15:10.769Z,46.73
2022-09-07T12:17:48.517Z,46.61
2022-09-07T12:20:14.059Z,46.26
2022-09-07T12:22:37.904Z,46.17
2022-09-07T12:25:01.030Z,46.15
2022-09-07T12:27:40.312Z,45.95
2022-09-07T12:30:49.112Z,45.72
2022-09-07T12:33:33.365Z,45.57
2022-09-07T12:35:58.979Z,45.91
2022-09-07T12:39:01.668Z,45.80
2022-09-07T12:41:25.326Z,45.76
2022-09-07T12:44:11.167Z,45.99
2022-09-07T12:46:52.197Z,45.76
2022-09-07T12:49:35.809Z,45.79
2022-09-07T12:52:05.192Z,45.90
2022-09-07T12:54:33.420Z,45.70
2022-09-07T12:59:49.479Z,45.88
2022-09-07T13:02:31.897Z,45.88
2022-09-07T13:05:02.817Z,45.92
2022-09-07T13:07:40.187Z,45.97
2022-09-07T13:10:04.641Z,46.20
2022-09-07T13:15:41.574Z,45.91
2022-09-07T13:18:05.040Z,45.94
2022-09-07T13:20:39.075Z,45.66
2022-09-07T13:23:20.756Z,45.73
2022-09-07T13:25:46.641Z,45.68
2022-09-07T13:28:15.315Z,45.43
2022-09-07T13:30:46.892Z,45.27
2022-09-07T13:33:43.094Z,44.99
2022-09-07T13:36:15.322Z,44.78
2022-09-07T13:38:41.238Z,44.90
2022-09-07T13:41:06.708Z,44.54
2022-09-07T13:43:29.958Z,44.61
2022-09-07T13:46:01.322Z,44.66
2022-09-07T13:48:26.414Z,44.63
2022-09-07T13:50:55.236Z,44.63
2022-09-07T13:53:27.747Z,44.89
2022-09-07T13:55:54.311Z,45.05
2022-09-07T13:58:18.947Z,45.29
2022-09-07T14:00:54.854Z,45.35
2022-09-07T14:03:18.159Z,45.36
2022-09-07T14:05:41.362Z,45.56
2022-09-07T14:08:04.647Z,45.75
2022-09-07T14:10:29.254Z,45.51
2022-09-07T14:12:53.105Z,45.59
2022-09-07T14:15:20.285Z,45.90
2022-09-07T14:17:43.534Z,45.45
2022-09-07T14:20:07.441Z,44.91
2022-09-07T14:22:32.827Z,45.06
2022-09-07T14:24:56.885Z,45.02
2022-09-07T14:27:23.095Z,45.38
2022-09-07T14:29:46.259Z,45.48
2022-09-07T14:32:09.872Z,45.58
2022-09-07T14:34:35.170Z,45.66
2022-09-07T14:37:01.506Z,45.88
2022-09-07T14:39:24.877Z,45.92
2022-09-07T14:41:48.034Z,45.95
2022-09-07T14:44:31.217Z,45.84
2022-09-07T14:46:56.730Z,46.18
2022-09-07T14:49:21.137Z,45.81
2022-09-07T14:51:44.696Z,45.95
2022-09-07T14:54:08.950Z,46.14
2022-09-07T14:56:33.288Z,46.31
2022-09-07T14:58:56.503Z,46.60
2022-09-07T15:01:38.133Z,46.77
2022-09-07T15:04:02.344Z,46.71
2022-09-07T15:09:28.980Z,46.29
2022-09-07T15:11:52.198Z,46.31
2022-09-07T15:14:18.842Z,46.18
2022-09-07T15:16:44.549Z,46.24
2022-09-07T15:19:23.927Z,46.39
2022-09-07T15:21:47.417Z,46.41
2022-09-07T15:24:10.632Z,46.20
2022-09-07T15:29:24.263Z,46.04
2022-09-07T15:31:59.666Z,46.04
2022-09-07T15:34:25.898Z,45.86
2022-09-07T15:36:50.056Z,45.75
2022-09-07T15:39:17.062Z,45.64
2022-09-07T15:41:40.327Z,45.60
2022-09-07T15:44:05.145Z,45.60
2022-09-07T15:46:28.437Z,45.58
2022-09-07T15:48:53.703Z,45.57
2022-09-07T15:54:12.897Z,45.82
2022-09-07T15:56:36.881Z,46.01
2022-09-07T15:59:00.273Z,45.88
2022-09-07T16:04:08.221Z,45.85
2022-09-07T16:06:31.506Z,46.15
2022-09-07T16:08:54.833Z,46.17
2022-09-07T16:11:19.707Z,46.00
2022-09-07T16:13:46.675Z,45.85
2022-09-07T16:16:11.063Z,45.91
2022-09-07T16:18:34.645Z,46.01
2022-09-07T16:21:05.628Z,46.03
2022-09-07T16:23:28.757Z,46.09
2022-09-07T16:25:58.459Z,46.29
2022-09-07T16:28:21.678Z,46.24
2022-09-07T16:30:44.800Z,46.62
2022-09-07T16:33:08.077Z,46.60
2022-09-07T16:35:32.987Z,47.01
2022-09-07T16:40:42.810Z,46.79
2022-09-07T16:43:05.985Z,47.06
2022-09-07T16:48:12.727Z,46.97
2022-09-07T16:50:35.911Z,46.96
2022-09-07T16:53:00.525Z,46.97
2022-09-07T16:55:23.459Z,47.23
2022-09-07T17:00:33.535Z,47.41
2022-09-07T17:02:57.143Z,47.79
2022-09-07T17:05:20.710Z,47.91
2022-09-07T17:07:44.032Z,47.93
2022-09-07T17:10:09.334Z,47.72
2022-09-07T17:12:32.592Z,47.75
2022-09-07T17:14:55.731Z,47.83
2022-09-07T17:17:20.110Z,47.65
2022-09-07T17:19:43.382Z,47.71
2022-09-07T17:22:07.243Z,47.79
2022-09-07T17:24:32.605Z,47.41
2022-09-07T17:26:59.484Z,47.58
2022-09-07T17:29:22.807Z,47.36
2022-09-07T17:34:29.361Z,47.29
2022-09-07T17:36:52.539Z,47.31
2022-09-07T17:39:17.670Z,47.38
2022-09-07T17:41:41.526Z,47.34
2022-09-07T17:44:06.074Z,47.26
2022-09-07T17:46:31.631Z,46.95
2022-09-07T17:48:56.112Z,46.90
2022-09-07T17:51:19.350Z,46.87
2022-09-07T17:53:45.385Z,46.79
2022-09-07T17:56:09.406Z,46.74
2022-09-07T17:58:32.695Z,46.92
2022-09-07T18:01:01.704Z,46.89
2022-09-07T18:03:24.993Z,46.69
2022-09-07T18:05:48.143Z,46.80
2022-09-07T18:08:12.692Z,46.65
2022-09-07T18:13:25.515Z,46.57
2022-09-07T18:15:54.199Z,46.65
2022-09-07T18:18:20.279Z,46.38
2022-09-07T18:20:45.139Z,46.40
2022-09-07T18:23:08.860Z,46.19
2022-09-07T18:25:33.741Z,46.06
2022-09-07T18:30:42.273Z,46.17
2022-09-07T18:33:05.677Z,46.16
2022-09-07T18:35:30.276Z,46.02
2022-09-07T18:37:53.579Z,45.96
2022-09-07T18:40:21.289Z,46.08
2022-09-07T18:42:44.851Z,46.02
2022-09-07T18:47:51.899Z,45.98
2022-09-07T18:50:15.115Z,45.94
2022-09-07T18:53:04.113Z,46.07
2022-09-07T18:55:23.936Z,45.91
2022-09-07T18:57:47.268Z,46.03
2022-09-07T19:00:11.910Z,46.01
2022-09-07T19:02:35.806Z,46.04
2022-09-07T19:07:43.974Z,46.03
2022-09-07T19:10:08.334Z,46.24
2022-09-07T19:12:32.134Z,46.28
2022-09-07T19:14:55.356Z,46.25
2022-09-07T19:17:18.618Z,46.45
2022-09-07T19:19:42.349Z,46.30
2022-09-07T19:22:06.229Z,46.33
2022-09-07T19:24:31.998Z,46.34
2022-09-07T19:27:00.092Z,46.60
2022-09-07T19:29:23.710Z,46.50
2022-09-07T19:32:04.187Z,46.56
2022-09-07T19:34:27.528Z,46.43
2022-09-07T19:36:50.915Z,46.54
2022-09-07T19:39:14.171Z,46.42
2022-09-07T19:41:42.131Z,46.32
2022-09-07T19:44:05.261Z,46.21
2022-09-07T19:46:28.555Z,46.56
2022-09-07T19:48:51.842Z,46.45
2022-09-07T19:51:15.699Z,46.59
2022-09-07T19:53:39.739Z,46.28
2022-09-07T19:56:06.644Z,46.34
2022-09-07T19:58:35.577Z,46.34
2022-09-07T20:00:58.835Z,46.49
2022-09-07T20:03:22.315Z,46.65
2022-09-07T20:05:45.498Z,46.52
2022-09-07T20:08:08.816Z,46.54
2022-09-07T20:10:32.094Z,46.57
2022-09-07T20:12:55.491Z,46.57
2022-09-07T20:15:20.030Z,46.50
2022-09-07T20:17:43.232Z,46.70
2022-09-07T20:20:07.196Z,46.55
2022-09-07T20:22:31.216Z,46.67
2022-09-07T20:24:54.385Z,46.56
2022-09-07T20:27:17.657Z,46.97
2022-09-07T20:29:40.926Z,46.57
2022-09-07T20:32:05.703Z,46.61
2022-09-07T20:34:29.017Z,46.82
2022-09-07T20:36:52.248Z,46.71
2022-09-07T20:39:15.854Z,46.71
2022-09-07T20:41:39.008Z,46.64
2022-09-07T20:44:03.247Z,47.10
2022-09-07T20:46:26.534Z,46.80
2022-09-07T20:48:51.163Z,46.71
2022-09-07T20:51:17.946Z,46.75
2022-09-07T20:53:43.420Z,46.73
2022-09-07T20:56:08.020Z,46.89
2022-09-07T20:58:30.926Z,46.74
2022-09-07T21:00:54.247Z,46.74
2022-09-07T21:03:17.420Z,46.89
2022-09-07T21:05:42.302Z,47.20
2022-09-07T21:08:05.929Z,46.98
2022-09-07T21:10:29.204Z,47.00
2022-09-07T21:12:53.273Z,46.86
2022-09-07T21:15:16.574Z,47.29
2022-09-07T21:17:39.841Z,47.20
2022-09-07T21:20:03.947Z,47.30
2022-09-07T21:22:28.545Z,48.19
2022-09-07T21:24:51.707Z,48.54
2022-09-07T21:27:14.870Z,48.52
2022-09-07T21:29:38.080Z,49.33
2022-09-07T21:32:01.321Z,49.24
2022-09-07T21:34:24.591Z,49.52
2022-09-07T21:36:47.740Z,49.58
2022-09-07T21:39:14.543Z,49.89
2022-09-07T21:41:37.957Z,49.90
2022-09-07T21:44:02.331Z,49.81
2022-09-07T21:46:25.479Z,49.79
2022-09-07T21:48:48.697Z,49.68
2022-09-07T21:51:11.972Z,49.52
2022-09-07T21:53:35.226Z,49.80
2022-09-07T21:56:00.705Z,50.01
2022-09-07T21:58:23.894Z,50.35
2022-09-07T22:00:47.157Z,50.22
2022-09-07T22:03:10.446Z,50.11
2022-09-07T22:05:33.617Z,49.89
2022-09-07T22:07:56.851Z,49.96
2022-09-07T22:10:20.025Z,49.86
2022-09-07T22:12:44.637Z,50.08
2022-09-07T22:15:07.835Z,49.96
2022-09-07T22:17:31.546Z,49.89
2022-09-07T22:19:54.841Z,49.86
2022-09-07T22:22:18.017Z,50.33
2022-09-07T22:24:41.262Z,50.00
2022-09-07T22:27:04.436Z,50.27
2022-09-07T22:29:29.346Z,50.61
2022-09-07T22:31:52.573Z,50.28
2022-09-07T22:34:16.022Z,50.44
2022-09-07T22:36:40.014Z,50.43
2022-09-07T22:39:07.512Z,50.73
2022-09-07T22:41:31.794Z,50.69
2022-09-07T22:43:55.371Z,50.46
2022-09-07T22:46:20.861Z,50.83
2022-09-07T22:48:44.262Z,50.51
2022-09-07T22:51:07.798Z,50.55
2022-09-07T22:53:32.309Z,50.47
2022-09-07T22:55:55.332Z,50.64
2022-09-07T22:58:18.562Z,50.43
2022-09-07T23:00:44.362Z,50.42
2022-09-07T23:03:09.015Z,50.12
2022-09-07T23:05:32.731Z,50.36
2022-09-07T23:07:55.913Z,49.80
2022-09-07T23:10:19.032Z,50.03
2022-09-07T23:12:42.213Z,49.77
2022-09-07T23:15:05.978Z,49.56
2022-09-07T23:17:29.167Z,49.73
2022-09-07T23:19:53.799Z,49.56
2022-09-07T23:22:16.706Z,50.17
2022-09-07T23:24:41.677Z,50.14
2022-09-07T23:27:05.015Z,50.33
2022-09-07T23:29:28.151Z,50.73
2022-09-07T23:31:51.665Z,50.16
2022-09-07T23:34:14.915Z,50.48
2022-09-07T23:36:39.544Z,50.81
2022-09-07T23:39:02.738Z,50.46
2022-09-07T23:41:26.058Z,50.69
2022-09-07T23:43:49.529Z,50.38
2022-09-07T23:46:12.841Z,50.46
2022-09-07T23:48:36.119Z,51.01
2022-09-07T23:50:59.369Z,50.63
2022-09-07T23:53:24.103Z,50.68
2022-09-07T23:55:49.831Z,50.86
2022-09-07T23:58:12.998Z,50.75
